createdAt,value
2019-02-07T00:01:43.449Z,2.70
2019-02-07T00:04:12.641Z,2.70
2019-02-07T00:06:41.928Z,2.70
2019-02-07T00:09:11.512Z,2.70
2019-02-07T00:11:41.404Z,2.70
2019-02-07T00:14:10.729Z,2.80
2019-02-07T00:16:40.121Z,2.90
2019-02-07T00:19:09.482Z,4.00
2019-02-07T00:21:38.854Z,2.80
2019-02-07T00:24:08.337Z,2.90
2019-02-07T00:26:37.805Z,2.80
2019-02-07T00:29:07.186Z,2.80
2019-02-07T00:31:36.754Z,2.80
2019-02-07T00:34:06.441Z,2.90
2019-02-07T00:36:35.701Z,2.80
2019-02-07T00:39:07.484Z,2.70
2019-02-07T00:41:37.422Z,2.70
2019-02-07T00:44:06.966Z,2.60
2019-02-07T00:46:36.288Z,2.60
2019-02-07T00:49:05.733Z,2.70
2019-02-07T00:51:34.986Z,2.70
2019-02-07T00:54:04.791Z,2.70
2019-02-07T00:56:34.594Z,2.70
2019-02-07T00:59:04.276Z,2.80
2019-02-07T01:01:33.564Z,2.70
2019-02-07T01:04:02.869Z,2.70
2019-02-07T01:06:32.217Z,2.70
2019-02-07T01:09:01.624Z,2.70
2019-02-07T01:11:30.895Z,2.80
2019-02-07T01:14:00.256Z,2.70
2019-02-07T01:16:29.609Z,2.70
2019-02-07T01:18:59.266Z,2.70
2019-02-07T01:21:28.643Z,2.70
2019-02-07T01:23:58.204Z,2.80
2019-02-07T01:26:27.478Z,2.80
2019-02-07T01:28:56.765Z,2.80
2019-02-07T01:31:26.007Z,2.80
2019-02-07T01:33:55.214Z,2.80
2019-02-07T01:36:24.521Z,2.80
2019-02-07T01:38:53.961Z,2.80
2019-02-07T01:41:23.349Z,2.80
2019-02-07T01:43:52.895Z,2.80
2019-02-07T01:46:22.244Z,2.80
2019-02-07T01:48:51.525Z,2.90
2019-02-07T01:51:20.969Z,2.90
2019-02-07T01:53:50.221Z,2.90
2019-02-07T01:56:19.742Z,2.80
2019-02-07T01:58:48.933Z,2.90
2019-02-07T02:01:18.103Z,2.90
2019-02-07T02:03:47.438Z,2.90
2019-02-07T02:06:16.717Z,3.00
2019-02-07T02:08:46.044Z,2.90
2019-02-07T02:11:15.737Z,3.00
2019-02-07T02:13:45.096Z,3.00
2019-02-07T02:16:14.742Z,2.90
2019-02-07T02:18:44.176Z,2.90
2019-02-07T02:21:13.629Z,2.90
2019-02-07T02:23:42.885Z,2.90
2019-02-07T02:26:12.764Z,2.90
2019-02-07T02:28:43.143Z,2.80
2019-02-07T02:31:12.853Z,2.80
2019-02-07T02:33:42.081Z,2.90
2019-02-07T02:36:11.693Z,2.90
2019-02-07T02:38:41.213Z,2.80
2019-02-07T02:41:10.584Z,2.80
2019-02-07T02:43:40.336Z,2.80
2019-02-07T02:46:09.754Z,2.70
2019-02-07T02:48:38.975Z,2.70
2019-02-07T02:51:08.215Z,2.70
2019-02-07T02:53:37.497Z,2.70
2019-02-07T02:56:06.905Z,2.70
2019-02-07T02:58:36.436Z,2.80
2019-02-07T03:01:21.546Z,2.80
2019-02-07T03:04:18.763Z,2.80
2019-02-07T03:07:05.733Z,2.80
2019-02-07T03:10:03.064Z,2.80
2019-02-07T03:12:49.676Z,2.80
2019-02-07T03:15:56.165Z,2.60
2019-02-07T03:18:39.785Z,2.60
2019-02-07T03:21:26.787Z,2.60
2019-02-07T03:24:11.906Z,2.70
2019-02-07T03:27:05.146Z,2.70
2019-02-07T03:29:51.804Z,2.70
2019-02-07T03:32:41.120Z,2.50
2019-02-07T03:35:41.624Z,2.60
2019-02-07T03:38:35.550Z,2.50
2019-02-07T03:41:23.940Z,2.40
2019-02-07T03:44:06.409Z,2.30
2019-02-07T03:46:57.943Z,2.20
2019-02-07T03:49:51.873Z,2.20
2019-02-07T03:52:40.062Z,2.20
2019-02-07T03:55:35.158Z,2.10
2019-02-07T03:58:29.805Z,2.20
2019-02-07T04:01:35.898Z,2.10
2019-02-07T04:04:22.929Z,2.20
2019-02-07T04:07:14.006Z,2.10
2019-02-07T04:10:00.010Z,2.20
2019-02-07T04:12:47.034Z,2.30
2019-02-07T04:15:29.074Z,2.20
2019-02-07T04:18:20.197Z,2.20
2019-02-07T04:21:06.336Z,2.20
2019-02-07T04:23:53.433Z,2.30
2019-02-07T04:26:50.614Z,2.20
2019-02-07T04:29:33.756Z,2.20
2019-02-07T04:32:20.953Z,2.30
2019-02-07T04:35:12.067Z,2.30
2019-02-07T04:37:57.629Z,2.30
2019-02-07T04:40:46.176Z,2.40
2019-02-07T04:43:30.499Z,2.40
2019-02-07T04:46:26.702Z,2.40
2019-02-07T04:49:03.873Z,2.30
2019-02-07T04:51:54.898Z,2.40
2019-02-07T04:54:41.731Z,2.40
2019-02-07T04:57:39.153Z,2.40
2019-02-07T05:00:28.305Z,2.30
2019-02-07T05:03:16.481Z,2.40
2019-02-07T05:06:17.305Z,2.30
2019-02-07T05:09:11.339Z,2.40
2019-02-07T05:12:05.661Z,2.50
2019-02-07T05:15:11.960Z,2.50
2019-02-07T05:18:00.461Z,2.60
2019-02-07T05:20:42.178Z,2.60
2019-02-07T05:23:33.243Z,2.50
2019-02-07T05:26:30.592Z,2.30
2019-02-07T05:29:17.409Z,2.30
2019-02-07T05:31:59.291Z,2.30
2019-02-07T05:34:39.002Z,2.30
2019-02-07T05:37:30.297Z,2.30
2019-02-07T05:40:17.247Z,2.30
2019-02-07T05:43:11.566Z,2.30
2019-02-07T05:46:06.665Z,2.30
2019-02-07T05:48:51.357Z,2.40
2019-02-07T05:51:51.895Z,2.40
2019-02-07T05:54:39.061Z,2.50
2019-02-07T05:57:39.546Z,2.40
2019-02-07T06:00:34.932Z,2.40
2019-02-07T06:03:24.060Z,2.50
2019-02-07T06:06:11.713Z,2.40
2019-02-07T06:09:09.109Z,2.50
2019-02-07T06:11:57.444Z,2.40
2019-02-07T06:14:44.073Z,2.40
2019-02-07T06:17:35.376Z,2.50
2019-02-07T06:20:33.412Z,2.40
2019-02-07T06:23:39.644Z,2.40
2019-02-07T06:26:21.283Z,2.20
2019-02-07T06:29:14.969Z,2.20
2019-02-07T06:31:56.877Z,2.30
2019-02-07T06:34:46.802Z,2.30
2019-02-07T06:37:35.056Z,2.40
2019-02-07T06:40:20.962Z,2.30
2019-02-07T06:43:15.154Z,2.30
2019-02-07T06:45:56.073Z,2.30
2019-02-07T06:48:59.222Z,2.30
2019-02-07T06:52:05.697Z,2.30
2019-02-07T06:54:52.393Z,2.50
2019-02-07T06:57:46.716Z,2.50
2019-02-07T07:00:29.505Z,2.50
2019-02-07T07:03:30.517Z,2.60
2019-02-07T07:06:17.262Z,2.50
2019-02-07T07:09:14.421Z,2.50
2019-02-07T07:11:59.658Z,2.40
2019-02-07T07:14:49.287Z,2.50
2019-02-07T07:17:36.666Z,2.60
2019-02-07T07:20:21.088Z,2.60
2019-02-07T07:23:08.426Z,2.60
2019-02-07T07:26:11.851Z,2.70
2019-02-07T07:29:18.214Z,2.70
2019-02-07T07:32:05.133Z,2.70
2019-02-07T07:35:00.099Z,2.80
2019-02-07T07:37:41.726Z,2.90
2019-02-07T07:40:29.478Z,2.90
2019-02-07T07:43:18.293Z,2.80
2019-02-07T07:46:04.877Z,2.90
2019-02-07T07:48:51.812Z,2.80
2019-02-07T07:51:38.274Z,2.90
2019-02-07T07:54:29.583Z,2.80
2019-02-07T07:57:23.969Z,2.90
2019-02-07T08:00:10.905Z,2.80
2019-02-07T08:03:02.010Z,2.80
2019-02-07T08:05:49.187Z,2.70
2019-02-07T08:08:49.570Z,2.70
2019-02-07T08:11:28.290Z,2.70
2019-02-07T08:14:15.471Z,2.70
2019-02-07T08:17:02.256Z,2.60
2019-02-07T08:19:49.405Z,2.70
2019-02-07T08:22:37.688Z,2.60
2019-02-07T08:25:45.166Z,2.70
2019-02-07T08:28:37.764Z,2.80
2019-02-07T08:31:26.333Z,2.90
2019-02-07T08:34:13.097Z,2.90
2019-02-07T08:37:07.400Z,3.00
2019-02-07T08:40:01.858Z,3.10
2019-02-07T08:42:53.509Z,3.10
2019-02-07T08:45:42.690Z,3.00
2019-02-07T08:48:29.675Z,3.10
2019-02-07T08:51:05.444Z,3.20
2019-02-07T08:53:57.921Z,3.20
2019-02-07T08:56:35.458Z,3.20
2019-02-07T08:59:22.345Z,3.30
2019-02-07T09:02:17.809Z,3.30
2019-02-07T09:05:04.446Z,3.30
2019-02-07T09:07:51.216Z,3.30
2019-02-07T09:10:52.634Z,3.30
2019-02-07T09:13:40.839Z,3.30
2019-02-07T09:16:27.825Z,3.50
2019-02-07T09:19:18.515Z,3.50
2019-02-07T09:22:05.261Z,3.50
2019-02-07T09:24:52.016Z,3.40
2019-02-07T09:27:52.430Z,3.50
2019-02-07T09:30:41.299Z,3.60
2019-02-07T09:33:29.533Z,3.70
2019-02-07T09:36:20.598Z,3.80
2019-02-07T09:39:29.786Z,3.80
2019-02-07T09:42:16.493Z,3.80
2019-02-07T09:45:03.441Z,3.80
2019-02-07T09:47:59.113Z,3.80
2019-02-07T09:50:46.479Z,3.70
2019-02-07T09:53:40.886Z,3.80
2019-02-07T09:56:27.531Z,3.80
2019-02-07T09:59:14.439Z,3.60
2019-02-07T10:02:02.656Z,3.70
2019-02-07T10:04:59.890Z,3.70
2019-02-07T10:07:48.593Z,3.80
2019-02-07T10:10:39.955Z,3.90
2019-02-07T10:13:26.945Z,3.80
2019-02-07T10:16:06.090Z,4.00
2019-02-07T10:18:52.964Z,4.00
2019-02-07T10:21:43.920Z,4.10
2019-02-07T10:24:30.528Z,4.10
2019-02-07T10:27:14.770Z,4.10
2019-02-07T10:30:09.266Z,4.30
2019-02-07T10:32:50.554Z,4.20
2019-02-07T10:35:44.618Z,4.20
2019-02-07T10:38:32.625Z,4.30
2019-02-07T10:41:21.050Z,4.30
2019-02-07T10:44:08.267Z,4.40
2019-02-07T10:46:56.197Z,4.40
2019-02-07T10:49:45.981Z,4.30
2019-02-07T10:52:30.948Z,4.10
2019-02-07T10:55:19.260Z,4.30
2019-02-07T10:58:13.493Z,4.30
2019-02-07T11:01:04.862Z,4.30
2019-02-07T11:03:53.281Z,4.30
2019-02-07T11:06:39.866Z,4.40
2019-02-07T11:09:25.678Z,4.50
2019-02-07T11:12:13.079Z,4.50
2019-02-07T11:14:59.675Z,4.50
2019-02-07T11:17:46.979Z,4.60
2019-02-07T11:20:28.838Z,4.60
2019-02-07T11:23:06.617Z,4.60
2019-02-07T11:25:51.998Z,4.80
2019-02-07T11:28:35.209Z,4.90
2019-02-07T11:31:26.049Z,4.90
2019-02-07T11:34:15.818Z,4.90
2019-02-07T11:37:08.306Z,5.10
2019-02-07T11:39:56.137Z,5.10
2019-02-07T11:42:46.989Z,5.20
2019-02-07T11:45:47.334Z,5.40
2019-02-07T11:48:34.708Z,5.40
2019-02-07T11:51:32.180Z,5.40
2019-02-07T11:54:13.806Z,5.50
2019-02-07T11:57:00.426Z,5.80
2019-02-07T11:59:38.002Z,5.80
2019-02-07T12:02:41.459Z,5.70
2019-02-07T12:05:48.052Z,5.80
2019-02-07T12:08:51.410Z,6.10
2019-02-07T12:11:38.411Z,6.10
2019-02-07T12:14:15.499Z,6.00
2019-02-07T12:17:15.091Z,6.00
2019-02-07T12:20:03.508Z,6.10
2019-02-07T12:22:48.242Z,6.00
2019-02-07T12:25:35.079Z,6.10
2019-02-07T12:28:38.149Z,6.10
2019-02-07T12:31:15.415Z,6.10
2019-02-07T12:34:02.274Z,6.20
2019-02-07T12:36:40.245Z,6.30
2019-02-07T12:39:21.287Z,6.30
2019-02-07T12:42:09.893Z,6.20
2019-02-07T12:45:01.242Z,6.10
2019-02-07T12:47:47.911Z,6.20
2019-02-07T12:50:48.213Z,6.20
2019-02-07T12:53:28.267Z,6.30
2019-02-07T12:56:22.337Z,6.60
2019-02-07T12:59:06.945Z,6.60
2019-02-07T13:02:07.751Z,6.60
2019-02-07T13:04:54.453Z,6.80
2019-02-07T13:07:48.693Z,6.90
2019-02-07T13:10:36.769Z,6.90
2019-02-07T13:13:26.568Z,6.80
2019-02-07T13:16:29.856Z,6.70
2019-02-07T13:19:27.937Z,6.70
2019-02-07T13:22:22.042Z,6.80
2019-02-07T13:25:16.345Z,6.90
2019-02-07T13:28:07.453Z,7.00
2019-02-07T13:30:58.840Z,7.00
2019-02-07T13:33:45.767Z,7.00
2019-02-07T13:36:37.283Z,6.90
2019-02-07T13:39:37.702Z,6.80
2019-02-07T13:42:29.686Z,6.90
2019-02-07T13:45:21.001Z,6.90
2019-02-07T13:48:03.456Z,6.90
2019-02-07T13:50:54.910Z,7.00
2019-02-07T13:53:38.783Z,6.90
2019-02-07T13:56:42.351Z,7.00
2019-02-07T13:59:36.665Z,7.10
2019-02-07T14:02:23.717Z,7.20
2019-02-07T14:05:11.281Z,7.20
2019-02-07T14:08:12.060Z,7.20
2019-02-07T14:11:06.459Z,7.10
2019-02-07T14:13:53.677Z,7.10
2019-02-07T14:16:54.401Z,7.00
2019-02-07T14:19:36.804Z,7.00
2019-02-07T14:22:35.436Z,7.20
2019-02-07T14:25:16.693Z,7.40
2019-02-07T14:28:03.784Z,7.40
2019-02-07T14:30:50.396Z,7.40
2019-02-07T14:33:38.692Z,7.30
2019-02-07T14:36:25.863Z,7.20
2019-02-07T14:39:23.468Z,7.30
2019-02-07T14:42:00.519Z,7.40
2019-02-07T14:45:06.821Z,7.50
2019-02-07T14:47:36.529Z,7.50
2019-02-07T14:50:14.509Z,7.50
2019-02-07T14:52:38.917Z,7.40
2019-02-07T14:55:08.985Z,7.40
2019-02-07T14:57:38.635Z,7.40
2019-02-07T15:00:11.782Z,7.40
2019-02-07T15:02:41.057Z,7.30
2019-02-07T15:05:11.284Z,7.40
2019-02-07T15:07:40.694Z,7.30
2019-02-07T15:10:12.828Z,7.30
2019-02-07T15:12:42.198Z,7.30
2019-02-07T15:15:13.197Z,7.40
2019-02-07T15:17:42.490Z,7.30
2019-02-07T15:20:12.017Z,7.20
2019-02-07T15:22:41.817Z,7.20
2019-02-07T15:25:11.879Z,7.20
2019-02-07T15:27:41.362Z,7.20
2019-02-07T15:30:13.713Z,7.10
2019-02-07T15:32:42.975Z,7.10
2019-02-07T15:35:23.591Z,7.00
2019-02-07T15:37:53.082Z,7.00
2019-02-07T15:40:25.472Z,7.00
2019-02-07T15:42:55.059Z,7.00
2019-02-07T15:45:24.597Z,7.00
2019-02-07T15:47:53.973Z,7.00
2019-02-07T15:50:24.273Z,7.10
2019-02-07T15:52:55.712Z,7.00
2019-02-07T15:55:25.214Z,7.10
2019-02-07T15:57:54.863Z,8.30
2019-02-07T16:00:42.509Z,9.40
2019-02-07T16:03:16.361Z,10.00
2019-02-07T16:05:45.915Z,9.70
2019-02-07T16:08:15.213Z,9.30
2019-02-07T16:10:46.968Z,8.50
2019-02-07T16:13:16.321Z,7.90
2019-02-07T16:15:45.698Z,7.60
2019-02-07T16:18:14.929Z,7.40
2019-02-07T16:20:48.874Z,7.20
2019-02-07T16:23:16.134Z,7.10
2019-02-07T16:25:45.408Z,7.00
2019-02-07T16:28:14.718Z,6.90
2019-02-07T16:30:44.173Z,6.90
2019-02-07T16:33:13.955Z,6.80
2019-02-07T16:35:43.346Z,6.70
2019-02-07T16:38:12.717Z,6.60
2019-02-07T16:40:42.029Z,6.60
2019-02-07T16:43:11.482Z,6.50
2019-02-07T16:45:41.317Z,6.50
2019-02-07T16:48:10.827Z,6.50
2019-02-07T16:50:40.097Z,6.40
2019-02-07T16:53:09.626Z,6.40
2019-02-07T16:55:38.907Z,6.30
2019-02-07T16:58:08.169Z,6.20
2019-02-07T17:00:38.040Z,6.20
2019-02-07T17:03:07.646Z,6.10
2019-02-07T17:05:38.058Z,6.00
2019-02-07T17:08:08.638Z,6.00
2019-02-07T17:10:38.304Z,6.00
2019-02-07T17:13:09.476Z,5.90
2019-02-07T17:15:39.166Z,5.80
2019-02-07T17:18:08.517Z,5.80
2019-02-07T17:20:37.965Z,5.80
2019-02-07T17:23:07.832Z,5.80
2019-02-07T17:25:37.589Z,5.80
2019-02-07T17:28:07.647Z,5.80
2019-02-07T17:30:37.277Z,5.60
2019-02-07T17:33:06.607Z,5.60
2019-02-07T17:35:38.999Z,5.60
2019-02-07T17:38:08.380Z,5.60
2019-02-07T17:40:39.013Z,5.50
2019-02-07T17:43:08.666Z,5.50
2019-02-07T17:45:37.969Z,5.40
2019-02-07T17:48:07.529Z,5.40
2019-02-07T17:50:36.982Z,5.40
2019-02-07T17:53:07.099Z,5.40
2019-02-07T17:55:37.195Z,5.40
2019-02-07T17:58:07.355Z,5.30
2019-02-07T18:00:52.421Z,5.30
2019-02-07T18:03:21.789Z,5.30
2019-02-07T18:05:51.289Z,5.40
2019-02-07T18:08:21.094Z,5.30
2019-02-07T18:10:51.569Z,5.30
2019-02-07T18:13:20.885Z,5.20
2019-02-07T18:15:50.161Z,5.20
2019-02-07T18:18:19.716Z,5.20
2019-02-07T18:20:49.498Z,5.10
2019-02-07T18:23:18.840Z,5.20
2019-02-07T18:25:49.245Z,5.10
2019-02-07T18:28:18.830Z,5.10
2019-02-07T18:30:48.265Z,5.10
2019-02-07T18:33:19.070Z,5.20
2019-02-07T18:35:48.932Z,5.30
2019-02-07T18:38:18.257Z,5.10
2019-02-07T18:40:47.641Z,5.10
2019-02-07T18:43:16.941Z,5.10
2019-02-07T18:45:46.381Z,5.10
2019-02-07T18:48:15.801Z,5.00
2019-02-07T18:50:46.542Z,5.10
2019-02-07T18:53:15.787Z,5.10
2019-02-07T18:55:45.294Z,5.10
2019-02-07T18:58:14.563Z,5.20
2019-02-07T19:00:43.769Z,5.20
2019-02-07T19:03:13.127Z,5.20
2019-02-07T19:05:42.584Z,5.20
2019-02-07T19:08:11.905Z,5.10
2019-02-07T19:10:41.700Z,5.10
2019-02-07T19:13:11.715Z,5.10
2019-02-07T19:15:43.922Z,5.00
2019-02-07T19:18:13.184Z,5.10
2019-02-07T19:20:42.818Z,5.00
2019-02-07T19:23:12.812Z,5.00
2019-02-07T19:25:42.473Z,5.10
2019-02-07T19:28:11.861Z,5.10
2019-02-07T19:30:41.349Z,5.00
2019-02-07T19:33:10.716Z,5.00
2019-02-07T19:35:40.048Z,5.00
2019-02-07T19:38:09.313Z,5.00
2019-02-07T19:40:40.071Z,5.00
2019-02-07T19:43:09.570Z,5.00
2019-02-07T19:45:38.903Z,4.90
2019-02-07T19:48:08.983Z,5.00
2019-02-07T19:50:38.444Z,5.00
2019-02-07T19:53:07.709Z,5.00
2019-02-07T19:55:37.351Z,5.00
2019-02-07T19:58:06.856Z,4.90
2019-02-07T20:00:39.325Z,4.90
2019-02-07T20:03:07.915Z,5.00
2019-02-07T20:05:37.528Z,4.90
2019-02-07T20:08:06.997Z,4.90
2019-02-07T20:10:36.537Z,5.10
2019-02-07T20:13:06.030Z,5.00
2019-02-07T20:15:37.165Z,5.00
2019-02-07T20:18:08.056Z,4.90
2019-02-07T20:20:38.300Z,4.90
2019-02-07T20:23:07.837Z,4.90
2019-02-07T20:25:37.445Z,4.90
2019-02-07T20:28:06.700Z,4.90
2019-02-07T20:30:40.714Z,5.00
2019-02-07T20:33:10.635Z,4.90
2019-02-07T20:35:39.992Z,4.90
2019-02-07T20:38:10.141Z,4.90
2019-02-07T20:40:39.901Z,4.90
2019-02-07T20:43:09.776Z,4.90
2019-02-07T20:45:39.232Z,4.90
2019-02-07T20:48:09.222Z,4.90
2019-02-07T20:50:39.138Z,5.00
2019-02-07T20:53:11.230Z,4.90
2019-02-07T20:55:40.996Z,5.00
2019-02-07T20:58:10.548Z,5.00
2019-02-07T21:00:40.539Z,5.00
2019-02-07T21:03:09.965Z,5.00
2019-02-07T21:05:39.515Z,5.00
2019-02-07T21:08:08.773Z,5.00
2019-02-07T21:10:38.200Z,5.00
2019-02-07T21:13:07.911Z,5.10
2019-02-07T21:15:37.701Z,5.00
2019-02-07T21:18:07.330Z,5.00
2019-02-07T21:20:36.874Z,5.00
2019-02-07T21:23:06.495Z,5.00
2019-02-07T21:25:42.037Z,5.10
2019-02-07T21:28:11.788Z,5.00
2019-02-07T21:30:41.143Z,4.90
2019-02-07T21:33:10.851Z,4.90
2019-02-07T21:35:40.142Z,4.90
2019-02-07T21:38:09.662Z,4.90
2019-02-07T21:40:39.293Z,4.90
2019-02-07T21:43:08.942Z,4.80
2019-02-07T21:45:38.171Z,4.90
2019-02-07T21:48:10.201Z,4.90
2019-02-07T21:50:39.714Z,4.90
2019-02-07T21:53:09.351Z,4.80
2019-02-07T21:55:38.583Z,4.80
2019-02-07T21:58:08.616Z,4.80
2019-02-07T22:00:39.782Z,4.70
2019-02-07T22:03:10.797Z,5.50
2019-02-07T22:05:40.149Z,4.70
2019-02-07T22:08:10.003Z,4.70
2019-02-07T22:10:39.383Z,4.80
2019-02-07T22:13:08.770Z,4.70
2019-02-07T22:15:37.956Z,4.70
2019-02-07T22:18:09.321Z,4.70
2019-02-07T22:20:38.546Z,5.60
2019-02-07T22:23:07.949Z,4.70
2019-02-07T22:25:37.124Z,4.70
2019-02-07T22:28:07.121Z,4.80
2019-02-07T22:30:36.863Z,4.80
2019-02-07T22:33:06.693Z,4.80
2019-02-07T22:35:36.032Z,4.80
2019-02-07T22:38:06.527Z,4.90
2019-02-07T22:40:35.784Z,4.90
2019-02-07T22:43:05.530Z,4.90
2019-02-07T22:45:35.251Z,4.90
2019-02-07T22:48:05.029Z,5.00
2019-02-07T22:50:34.299Z,4.90
2019-02-07T22:53:03.996Z,4.90
2019-02-07T22:55:33.243Z,4.80
2019-02-07T22:58:02.544Z,4.80
2019-02-07T23:01:25.264Z,4.80
2019-02-07T23:03:59.203Z,4.70
2019-02-07T23:06:28.492Z,4.70
2019-02-07T23:08:57.867Z,4.70
2019-02-07T23:11:27.157Z,4.70
2019-02-07T23:13:56.480Z,4.80
2019-02-07T23:16:25.834Z,4.80
2019-02-07T23:18:55.112Z,4.80
2019-02-07T23:21:24.423Z,4.80
2019-02-07T23:23:53.808Z,4.80
2019-02-07T23:26:23.215Z,4.80
2019-02-07T23:28:52.512Z,4.80
2019-02-07T23:31:21.871Z,4.80
2019-02-07T23:33:51.529Z,4.80
2019-02-07T23:36:21.188Z,4.80
2019-02-07T23:38:50.538Z,4.90
2019-02-07T23:41:19.852Z,4.80
2019-02-07T23:43:49.103Z,4.80
2019-02-07T23:46:18.638Z,4.70
2019-02-07T23:48:48.136Z,4.70
2019-02-07T23:51:17.458Z,4.70
2019-02-07T23:53:46.737Z,4.70
2019-02-07T23:56:16.135Z,4.70
2019-02-07T23:58:45.394Z,4.60
